Date,TemperatureHighF,TemperatureAvgF,TemperatureLowF,DewpointHighF,DewpointAvgF,DewpointLowF,HumidityHigh,HumidityAvg,HumidityLow,PressureMaxIn,PressureMinIn,WindSpeedMaxMPH,WindSpeedAvgMPH,GustSpeedMaxMPH,PrecipitationSumIn
2013-3-1,32,27,22,25,21,16,93,79,64,30.21,30.05,15,8,15,0.00
2013-3-2,43,27,20,23,19,16,84,71,37,30.22,30.01,11,4,14,0.00
2013-3-3,40,31,22,26,22,17,85,70,54,30.01,29.65,21,8,21,0.00
2013-3-4,50,37,32,34,29,23,99,73,47,29.84,29.58,20,6,20,0.00
2013-3-5,33,29,24,33,22,17,98,76,68,30.22,29.83,27,11,27,0.00
2013-3-6,44,30,24,25,21,18,87,70,41,30.29,30.15,21,6,21,0.00
2013-3-7,46,32,20,30,24,18,93,75,50,30.18,30.02,21,8,21,0.00
2013-3-8,56,41,31,38,32,26,86,72,47,30.09,29.82,23,8,23,0.01
2013-3-9,49,45,41,49,44,37,99,96,82,29.82,29.47,18,7,18,0.26
2013-3-10,46,32,25,45,32,25,99,99,97,29.73,29.50,24,7,24,0.11
2013-3-11,34,27,23,25,23,20,99,86,64,29.86,29.69,12,2,12,0.01
2013-3-12,39,29,23,28,23,19,93,79,63,30.18,29.85,22,8,22,0.00
2013-3-13,44,30,17,26,21,15,94,70,44,30.32,30.14,12,4,12,0.00
2013-3-14,60,44,32,43,33,24,97,67,45,30.15,29.94,14,5,14,0.00
2013-3-15,68,47,31,46,40,31,99,80,42,29.96,29.58,17,4,17,0.00
2013-3-16,38,34,28,38,30,23,99,85,72,30.05,29.70,24,10,24,0.00
2013-3-17,45,33,24,34,26,20,99,76,53,30.03,29.67,25,10,25,0.00
2013-3-18,40,34,24,34,26,16,99,74,44,29.90,29.62,21,6,21,0.15
2013-3-19,50,32,18,26,18,10,89,60,27,30.14,29.90,18,5,18,0.00
2013-3-20,35,25,15,22,10,4,82,56,28,30.24,29.98,24,8,24,0.00
2013-3-21,35,26,16,18,14,10,85,62,37,29.98,29.78,15,6,15,0.00
2013-3-22,36,30,24,23,19,15,82,65,47,29.90,29.83,13,5,13,0.00
2013-3-23,38,32,27,29,26,20,99,80,53,29.97,29.85,18,7,18,0.00
2013-3-24,32,27,24,28,24,21,99,89,72,29.89,29.82,24,10,24,0.01
2013-3-25,35,28,24,27,24,21,99,85,60,30.16,29.88,25,9,25,0.01
2013-3-26,44,31,18,25,22,17,99,70,43,30.22,30.11,12,4,12,0.00
2013-3-27,52,37,23,34,27,21,93,69,40,30.16,30.07,17,5,17,0.00
2013-3-28,65,45,27,36,31,26,96,63,27,30.13,30.03,14,4,14,0.00
2013-3-29,70,52,32,40,32,22,98,55,17,30.11,29.94,16,5,16,0.00
2013-3-30,70,55,46,55,44,34,99,68,42,29.98,29.74,21,5,21,0.17
2013-3-31,60,49,33,41,33,18,99,62,20,29.99,29.80,27,8,27,0.04